createdAt,value
2017-10-06T00:00:25.587Z,11.10
2017-10-06T00:02:53.669Z,11.20
2017-10-06T00:05:22.706Z,11.20
2017-10-06T00:07:50.805Z,11.20
2017-10-06T00:10:18.873Z,11.30
2017-10-06T00:12:46.957Z,11.30
2017-10-06T00:15:15.797Z,11.20
2017-10-06T00:17:43.907Z,11.20
2017-10-06T00:20:13.504Z,11.10
2017-10-06T00:22:41.583Z,11.10
2017-10-06T00:25:09.669Z,11.20
2017-10-06T00:27:37.727Z,11.30
2017-10-06T00:30:05.799Z,11.40
2017-10-06T00:32:33.864Z,11.30
2017-10-06T00:35:01.948Z,11.30
2017-10-06T00:37:31.364Z,11.40
2017-10-06T00:40:00.199Z,11.40
2017-10-06T00:42:28.267Z,11.40
2017-10-06T00:44:56.355Z,11.40
2017-10-06T00:47:25.200Z,11.30
2017-10-06T00:49:53.291Z,11.20
2017-10-06T00:52:21.383Z,11.40
2017-10-06T00:54:49.440Z,11.30
2017-10-06T00:57:17.514Z,11.30
2017-10-06T00:59:45.582Z,11.40
2017-10-06T01:02:13.643Z,11.50
2017-10-06T01:04:41.721Z,11.40
2017-10-06T01:07:09.938Z,11.20
2017-10-06T01:09:38.745Z,11.10
2017-10-06T01:12:06.860Z,11.00
2017-10-06T01:14:34.927Z,11.20
2017-10-06T01:17:03.038Z,11.10
2017-10-06T01:19:31.097Z,11.10
2017-10-06T01:21:59.957Z,11.00
2017-10-06T01:24:28.023Z,11.00
2017-10-06T01:26:56.151Z,10.90
2017-10-06T01:29:24.223Z,10.90
2017-10-06T01:31:53.091Z,11.00
2017-10-06T01:34:21.156Z,11.00
2017-10-06T01:36:50.037Z,11.10
2017-10-06T01:39:18.148Z,11.10
2017-10-06T01:41:46.985Z,11.20
2017-10-06T01:44:15.080Z,11.10
2017-10-06T01:46:43.177Z,11.10
2017-10-06T01:49:11.250Z,11.00
2017-10-06T01:51:40.092Z,11.10
2017-10-06T01:54:08.156Z,11.00
2017-10-06T01:56:36.256Z,11.10
2017-10-06T01:59:04.327Z,11.10
2017-10-06T02:01:32.419Z,11.10
2017-10-06T02:04:00.492Z,11.00
2017-10-06T02:06:28.594Z,10.90
2017-10-06T02:08:56.693Z,10.80
2017-10-06T02:11:24.790Z,10.90
2017-10-06T02:13:52.873Z,10.90
2017-10-06T02:16:20.942Z,10.90
2017-10-06T02:18:49.010Z,11.00
2017-10-06T02:21:17.085Z,10.90
2017-10-06T02:23:45.153Z,10.90
2017-10-06T02:26:13.323Z,10.90
2017-10-06T02:28:41.397Z,11.00
2017-10-06T02:31:09.453Z,11.10
2017-10-06T02:33:37.543Z,11.20
2017-10-06T02:36:05.703Z,11.30
2017-10-06T02:38:33.763Z,11.40
2017-10-06T02:41:02.617Z,11.30
2017-10-06T02:43:30.703Z,11.20
2017-10-06T02:45:58.780Z,11.40
2017-10-06T02:48:26.861Z,11.40
2017-10-06T02:50:55.707Z,11.10
2017-10-06T02:53:23.774Z,11.10
2017-10-06T02:55:51.876Z,11.10
2017-10-06T02:58:20.714Z,11.10
2017-10-06T03:00:48.812Z,11.00
2017-10-06T03:03:16.908Z,11.10
2017-10-06T03:05:44.985Z,11.20
2017-10-06T03:08:13.055Z,11.30
2017-10-06T03:10:41.127Z,11.30
2017-10-06T03:13:09.209Z,11.30
2017-10-06T03:15:38.344Z,11.30
2017-10-06T03:18:06.396Z,11.20
2017-10-06T03:20:34.480Z,11.20
2017-10-06T03:23:02.553Z,11.10
2017-10-06T03:25:30.616Z,11.00
2017-10-06T03:27:58.811Z,11.00
2017-10-06T03:30:26.908Z,11.00
2017-10-06T03:32:54.975Z,11.10
2017-10-06T03:35:23.044Z,11.10
2017-10-06T03:37:51.116Z,11.20
2017-10-06T03:40:19.196Z,11.30
2017-10-06T03:42:47.270Z,11.40
2017-10-06T03:45:15.364Z,11.50
2017-10-06T03:47:43.423Z,11.30
2017-10-06T03:50:11.515Z,11.30
2017-10-06T03:52:39.588Z,11.30
2017-10-06T03:55:07.669Z,11.30
2017-10-06T03:57:35.762Z,11.40
2017-10-06T04:00:03.932Z,11.40
2017-10-06T04:02:32.008Z,11.40
2017-10-06T04:05:00.064Z,11.40
2017-10-06T04:07:28.143Z,11.20
2017-10-06T04:09:56.991Z,11.20
2017-10-06T04:12:25.079Z,11.20
2017-10-06T04:14:53.164Z,11.40
2017-10-06T04:17:21.233Z,11.40
2017-10-06T04:19:49.328Z,11.20
2017-10-06T04:22:18.380Z,11.20
2017-10-06T04:24:46.472Z,11.10
2017-10-06T04:27:14.544Z,11.00
2017-10-06T04:29:42.624Z,11.10
2017-10-06T04:32:10.684Z,11.20
2017-10-06T04:34:38.799Z,11.10
2017-10-06T04:37:07.631Z,11.10
2017-10-06T04:39:35.719Z,11.10
2017-10-06T04:42:03.814Z,11.20
2017-10-06T04:44:31.897Z,11.10
2017-10-06T04:46:59.967Z,11.10
2017-10-06T04:49:28.816Z,10.90
2017-10-06T04:51:56.919Z,10.80
2017-10-06T04:54:25.000Z,10.80
2017-10-06T04:56:53.840Z,10.90
2017-10-06T04:59:21.955Z,10.80
2017-10-06T05:01:50.030Z,10.90
2017-10-06T05:04:18.876Z,11.10
2017-10-06T05:06:46.932Z,11.10
2017-10-06T05:09:15.039Z,11.10
2017-10-06T05:11:43.103Z,11.00
2017-10-06T05:14:11.183Z,11.00
2017-10-06T05:16:39.293Z,10.90
2017-10-06T05:19:08.115Z,10.90
2017-10-06T05:21:36.192Z,10.90
2017-10-06T05:24:04.281Z,11.00
2017-10-06T05:26:32.351Z,11.00
2017-10-06T05:29:00.404Z,11.00
2017-10-06T05:31:28.517Z,11.00
2017-10-06T05:33:56.572Z,11.00
2017-10-06T05:36:24.641Z,11.10
2017-10-06T05:38:52.728Z,11.10
2017-10-06T05:41:21.574Z,11.10
2017-10-06T05:43:49.652Z,11.00
2017-10-06T05:46:17.716Z,10.90
2017-10-06T05:48:45.786Z,10.90
2017-10-06T05:51:13.879Z,10.80
2017-10-06T05:53:41.972Z,11.00
2017-10-06T05:56:10.038Z,10.90
2017-10-06T05:58:39.604Z,10.90
2017-10-06T06:01:07.704Z,10.90
2017-10-06T06:03:35.768Z,10.90
2017-10-06T06:06:03.896Z,10.70
2017-10-06T06:08:31.995Z,10.80
2017-10-06T06:11:00.069Z,10.90
2017-10-06T06:13:28.156Z,10.80
2017-10-06T06:15:56.235Z,10.80
2017-10-06T06:18:24.309Z,11.00
2017-10-06T06:20:52.402Z,11.00
2017-10-06T06:23:20.492Z,11.10
2017-10-06T06:25:48.563Z,11.10
2017-10-06T06:28:16.637Z,11.10
2017-10-06T06:30:44.733Z,11.00
2017-10-06T06:33:13.616Z,10.80
2017-10-06T06:35:41.721Z,10.70
2017-10-06T06:38:09.767Z,10.70
2017-10-06T06:40:37.892Z,10.70
2017-10-06T06:43:05.943Z,10.60
2017-10-06T06:45:34.032Z,10.80
2017-10-06T06:48:02.117Z,10.90
2017-10-06T06:50:30.213Z,10.80
2017-10-06T06:52:58.287Z,10.90
2017-10-06T06:55:27.180Z,11.10
2017-10-06T06:57:55.243Z,11.10
2017-10-06T07:00:23.328Z,11.10
2017-10-06T07:02:51.400Z,11.20
2017-10-06T07:05:19.504Z,11.20
2017-10-06T07:07:48.324Z,11.30
2017-10-06T07:10:16.565Z,11.20
2017-10-06T07:12:45.478Z,11.40
2017-10-06T07:15:13.546Z,11.40
2017-10-06T07:17:41.623Z,11.50
2017-10-06T07:20:09.742Z,11.70
2017-10-06T07:22:37.813Z,11.70
2017-10-06T07:25:05.875Z,11.90
2017-10-06T07:27:33.993Z,12.00
2017-10-06T07:30:02.068Z,12.10
2017-10-06T07:32:30.120Z,12.20
2017-10-06T07:34:58.971Z,12.40
2017-10-06T07:37:27.071Z,12.40
2017-10-06T07:39:55.909Z,12.50
2017-10-06T07:42:23.974Z,12.40
2017-10-06T07:44:52.048Z,12.40
2017-10-06T07:47:20.142Z,12.40
2017-10-06T07:49:49.008Z,12.00
2017-10-06T07:52:17.057Z,11.90
2017-10-06T07:54:45.165Z,12.00
2017-10-06T07:57:14.000Z,12.20
2017-10-06T07:59:42.069Z,12.10
2017-10-06T08:02:10.185Z,12.20
2017-10-06T08:04:38.250Z,12.20
2017-10-06T08:07:06.336Z,12.40
2017-10-06T08:09:35.196Z,12.70
2017-10-06T08:12:03.289Z,12.60
2017-10-06T08:14:31.488Z,12.60
2017-10-06T08:16:59.547Z,12.60
2017-10-06T08:19:27.624Z,12.90
2017-10-06T08:21:56.479Z,13.40
2017-10-06T08:24:24.563Z,13.30
2017-10-06T08:26:52.631Z,13.50
2017-10-06T08:29:20.719Z,13.60
2017-10-06T08:31:48.804Z,13.60
2017-10-06T08:34:18.423Z,13.30
2017-10-06T08:36:47.251Z,13.00
2017-10-06T08:39:15.423Z,12.90
2017-10-06T08:41:43.496Z,12.70
2017-10-06T08:44:11.588Z,12.50
2017-10-06T08:46:40.442Z,12.70
2017-10-06T08:49:08.527Z,12.70
2017-10-06T08:51:36.616Z,12.60
2017-10-06T08:54:05.526Z,12.80
2017-10-06T08:56:33.573Z,12.80
2017-10-06T08:59:02.415Z,13.20
2017-10-06T09:01:30.511Z,13.10
2017-10-06T09:03:58.612Z,13.20
2017-10-06T09:06:27.452Z,12.90
2017-10-06T09:08:55.536Z,12.90
2017-10-06T09:11:23.620Z,12.90
2017-10-06T09:13:51.699Z,12.90
2017-10-06T09:16:19.751Z,12.80
2017-10-06T09:18:47.824Z,12.90
2017-10-06T09:21:15.906Z,13.00
2017-10-06T09:23:45.504Z,12.90
2017-10-06T09:26:13.583Z,12.90
2017-10-06T09:28:41.772Z,12.90
2017-10-06T09:31:09.844Z,12.90
2017-10-06T09:33:37.930Z,12.90
2017-10-06T09:36:06.765Z,13.00
2017-10-06T09:38:34.866Z,13.00
2017-10-06T09:41:02.943Z,13.10
2017-10-06T09:43:33.332Z,13.20
2017-10-06T09:46:01.400Z,13.20
2017-10-06T09:48:29.510Z,13.20
2017-10-06T09:50:57.596Z,13.10
2017-10-06T09:53:25.667Z,13.20
2017-10-06T09:55:53.743Z,13.30
2017-10-06T09:58:21.824Z,13.20
2017-10-06T10:00:50.644Z,13.00
2017-10-06T10:03:18.744Z,12.90
2017-10-06T10:05:46.835Z,12.70
2017-10-06T10:08:14.895Z,12.50
2017-10-06T10:10:42.992Z,12.50
2017-10-06T10:13:11.036Z,12.50
2017-10-06T10:15:39.140Z,12.50
2017-10-06T10:18:07.999Z,12.50
2017-10-06T10:20:36.081Z,12.50
2017-10-06T10:23:04.152Z,12.50
2017-10-06T10:25:32.240Z,12.40
2017-10-06T10:28:00.349Z,12.40
2017-10-06T10:30:28.429Z,12.40
2017-10-06T10:32:56.527Z,12.30
2017-10-06T10:35:24.599Z,12.20
2017-10-06T10:37:52.689Z,12.10
2017-10-06T10:40:20.810Z,12.10
2017-10-06T10:42:48.877Z,12.00
2017-10-06T10:45:16.969Z,12.00
2017-10-06T10:47:45.806Z,11.90
2017-10-06T10:50:14.235Z,11.90
2017-10-06T10:52:42.329Z,12.10
2017-10-06T10:55:10.425Z,12.10
2017-10-06T10:57:38.501Z,12.30
2017-10-06T11:00:06.571Z,12.30
2017-10-06T11:02:34.647Z,12.60
2017-10-06T11:05:02.839Z,12.70
2017-10-06T11:07:30.989Z,13.00
2017-10-06T11:09:59.245Z,13.20
2017-10-06T11:12:27.438Z,13.40
2017-10-06T11:14:56.322Z,14.00
2017-10-06T11:17:25.166Z,15.30
2017-10-06T11:19:53.418Z,15.30
2017-10-06T11:22:21.509Z,16.90
2017-10-06T11:24:49.583Z,17.30
2017-10-06T11:27:17.648Z,16.60
2017-10-06T11:29:45.771Z,16.30
2017-10-06T11:32:13.836Z,16.70
2017-10-06T11:34:41.908Z,17.50
2017-10-06T11:37:10.024Z,17.70
2017-10-06T11:39:38.111Z,17.10
2017-10-06T11:42:06.957Z,16.40
2017-10-06T11:44:35.032Z,16.30
2017-10-06T11:47:03.104Z,16.30
2017-10-06T11:49:31.189Z,16.30
2017-10-06T11:51:59.259Z,16.20
2017-10-06T11:54:27.324Z,16.40
2017-10-06T11:56:55.444Z,16.80
2017-10-06T11:59:23.569Z,16.50
2017-10-06T12:01:51.744Z,16.20
2017-10-06T12:04:19.831Z,15.90
2017-10-06T12:06:47.975Z,15.80
2017-10-06T12:09:16.218Z,16.00
2017-10-06T12:11:44.340Z,15.90
2017-10-06T12:14:13.226Z,15.80
2017-10-06T12:16:42.090Z,15.80
2017-10-06T12:19:10.199Z,15.80
2017-10-06T12:21:38.370Z,15.30
2017-10-06T12:24:06.476Z,15.50
2017-10-06T12:26:35.315Z,15.70
2017-10-06T12:29:03.392Z,15.70
2017-10-06T12:31:31.839Z,15.80
2017-10-06T12:33:59.928Z,15.80
2017-10-06T12:36:28.017Z,15.80
2017-10-06T12:38:56.127Z,15.80
2017-10-06T12:41:24.233Z,16.10
2017-10-06T12:43:52.369Z,16.10
2017-10-06T12:46:21.237Z,15.90
2017-10-06T12:48:49.333Z,15.80
2017-10-06T12:51:18.155Z,15.40
2017-10-06T12:53:46.276Z,15.40
2017-10-06T12:56:14.483Z,15.50
2017-10-06T12:58:42.609Z,15.60
2017-10-06T13:01:10.688Z,15.50
2017-10-06T13:03:39.519Z,16.00
2017-10-06T13:06:07.632Z,16.00
2017-10-06T13:08:35.703Z,16.20
2017-10-06T13:11:04.614Z,16.30
2017-10-06T13:13:32.676Z,16.20
2017-10-06T13:16:00.760Z,16.30
2017-10-06T13:18:28.846Z,16.30
2017-10-06T13:20:57.710Z,16.10
2017-10-06T13:23:25.766Z,16.00
2017-10-06T13:25:54.220Z,16.20
2017-10-06T13:28:22.280Z,15.90
2017-10-06T13:30:50.373Z,16.10
2017-10-06T13:33:18.475Z,16.10
2017-10-06T13:35:46.549Z,16.10
2017-10-06T13:38:14.675Z,16.20
2017-10-06T13:40:43.501Z,16.30
2017-10-06T13:43:11.572Z,16.30
2017-10-06T13:45:39.663Z,16.40
2017-10-06T13:48:07.760Z,16.20
2017-10-06T13:50:35.847Z,15.90
2017-10-06T13:53:03.924Z,15.70
2017-10-06T13:55:32.033Z,15.60
2017-10-06T13:58:00.117Z,15.50
2017-10-06T14:00:28.231Z,15.50
2017-10-06T14:02:56.288Z,15.70
2017-10-06T14:05:24.347Z,15.70
2017-10-06T14:07:52.487Z,15.70
2017-10-06T14:10:20.568Z,15.70
2017-10-06T14:12:48.632Z,15.60
2017-10-06T14:15:16.724Z,15.50
2017-10-06T14:17:44.929Z,15.60
2017-10-06T14:20:13.537Z,15.80
2017-10-06T14:22:47.496Z,16.10
2017-10-06T14:25:17.046Z,16.30
2017-10-06T14:27:53.102Z,16.10
2017-10-06T14:30:30.171Z,16.10
2017-10-06T14:33:01.818Z,16.10
2017-10-06T14:35:30.739Z,16.10
2017-10-06T14:38:07.769Z,16.00
2017-10-06T14:40:41.907Z,16.00
2017-10-06T14:43:15.155Z,16.00
2017-10-06T14:45:49.170Z,16.00
2017-10-06T14:48:20.456Z,16.00
2017-10-06T14:50:49.778Z,15.90
2017-10-06T14:53:20.420Z,15.70
2017-10-06T14:55:49.346Z,15.60
2017-10-06T14:58:19.638Z,15.60
2017-10-06T15:00:56.618Z,15.50
2017-10-06T15:03:26.836Z,15.50
2017-10-06T15:06:04.884Z,15.40
2017-10-06T15:08:44.921Z,15.40
2017-10-06T15:11:14.433Z,15.40
2017-10-06T15:17:04.258Z,15.20
2017-10-06T15:19:32.958Z,15.20
2017-10-06T15:22:01.218Z,15.10
2017-10-06T15:24:29.411Z,15.00
2017-10-06T15:26:58.737Z,14.90
2017-10-06T15:29:27.032Z,14.90
2017-10-06T15:31:55.299Z,15.00
2017-10-06T15:34:23.623Z,15.10
2017-10-06T15:36:52.002Z,15.20
2017-10-06T15:39:20.336Z,15.10
2017-10-06T15:41:48.639Z,15.00
2017-10-06T15:44:17.624Z,14.90
2017-10-06T15:46:45.991Z,14.80
2017-10-06T15:49:14.249Z,14.80
2017-10-06T15:51:43.049Z,14.70
2017-10-06T15:54:12.340Z,14.80
2017-10-06T15:56:40.628Z,14.90
2017-10-06T16:12:22.530Z,15.10
2017-10-06T16:15:09.307Z,14.60
2017-10-06T16:35:15.565Z,14.30
2017-10-06T16:37:43.691Z,14.30
2017-10-06T16:40:11.808Z,14.20
2017-10-06T16:42:40.660Z,14.20
2017-10-06T16:45:09.539Z,14.10
2017-10-06T16:47:37.629Z,14.10
2017-10-06T16:50:05.762Z,14.00
2017-10-06T16:52:33.835Z,14.00
2017-10-06T16:55:01.924Z,14.00
2017-10-06T16:57:30.020Z,14.00
2017-10-06T16:59:58.135Z,14.00
2017-10-06T17:02:26.208Z,14.10
2017-10-06T17:04:54.323Z,14.10
2017-10-06T17:07:23.178Z,14.10
2017-10-06T17:09:51.272Z,14.10
2017-10-06T17:12:20.152Z,14.00
2017-10-06T17:14:48.300Z,14.00
2017-10-06T17:17:16.378Z,14.10
2017-10-06T17:19:44.476Z,14.00
2017-10-06T17:22:13.368Z,13.90
2017-10-06T17:24:42.232Z,13.90
2017-10-06T17:27:10.355Z,13.80
2017-10-06T17:29:38.495Z,13.90
2017-10-06T17:32:07.368Z,14.10
2017-10-06T17:34:35.463Z,14.10
2017-10-06T17:37:03.565Z,14.20
2017-10-06T17:39:32.441Z,14.00
2017-10-06T17:42:01.303Z,13.80
2017-10-06T17:44:29.376Z,13.70
2017-10-06T17:46:57.470Z,13.60
2017-10-06T17:49:25.685Z,13.50
2017-10-06T17:51:55.452Z,13.40
2017-10-06T17:54:23.528Z,13.30
2017-10-06T17:56:51.724Z,13.40
2017-10-06T17:59:19.805Z,13.50
2017-10-06T18:01:48.659Z,13.40
2017-10-06T18:04:16.790Z,13.40
2017-10-06T18:06:44.896Z,13.30
2017-10-06T18:09:12.968Z,13.30
2017-10-06T18:11:41.068Z,13.30
2017-10-06T18:14:10.428Z,13.30
2017-10-06T18:16:38.546Z,13.30
2017-10-06T18:19:06.668Z,13.40
2017-10-06T18:21:34.733Z,13.30
2017-10-06T18:24:02.836Z,13.50
2017-10-06T18:26:31.222Z,13.50
2017-10-06T18:28:59.294Z,13.50
2017-10-06T18:31:27.404Z,13.50
2017-10-06T18:33:55.492Z,13.30
2017-10-06T18:36:23.611Z,13.40
2017-10-06T18:38:51.689Z,13.30
2017-10-06T18:41:20.567Z,13.30
2017-10-06T18:43:48.707Z,13.30
2017-10-06T18:46:16.844Z,13.30
2017-10-06T18:48:44.928Z,13.30
2017-10-06T18:51:13.024Z,13.30
2017-10-06T18:53:41.889Z,13.40
2017-10-06T18:56:09.996Z,13.40
2017-10-06T18:58:38.104Z,13.50
2017-10-06T19:01:06.205Z,13.50
2017-10-06T19:03:35.109Z,13.50
2017-10-06T19:06:03.977Z,13.50
2017-10-06T19:08:32.640Z,13.50
2017-10-06T19:11:00.731Z,13.50
2017-10-06T19:13:28.839Z,13.40
2017-10-06T19:15:57.705Z,13.30
2017-10-06T19:18:26.738Z,13.20
2017-10-06T19:20:55.577Z,13.10
2017-10-06T19:23:23.649Z,13.00
2017-10-06T19:25:51.758Z,13.00
2017-10-06T19:28:20.604Z,13.00
2017-10-06T19:30:48.679Z,13.00
2017-10-06T19:33:16.760Z,13.00
2017-10-06T19:35:45.091Z,13.10
2017-10-06T19:38:13.915Z,13.00
2017-10-06T19:40:41.987Z,12.90
2017-10-06T19:43:10.058Z,13.00
2017-10-06T19:45:38.156Z,13.00
2017-10-06T19:48:07.029Z,13.10
2017-10-06T19:50:35.098Z,13.00
2017-10-06T19:53:03.217Z,13.20
2017-10-06T19:55:31.309Z,13.10
2017-10-06T19:58:04.011Z,13.10
2017-10-06T20:00:32.109Z,13.00
2017-10-06T20:03:00.190Z,13.10
2017-10-06T20:05:28.278Z,13.00
2017-10-06T20:07:56.352Z,13.10
2017-10-06T20:10:24.421Z,13.20
2017-10-06T20:12:52.577Z,13.30
2017-10-06T20:15:20.747Z,13.30
2017-10-06T20:17:48.834Z,13.40
2017-10-06T20:20:16.975Z,13.40
2017-10-06T20:22:45.659Z,13.30
2017-10-06T20:25:14.757Z,13.30
2017-10-06T20:27:42.831Z,13.30
2017-10-06T20:30:10.907Z,13.30
2017-10-06T20:32:39.045Z,13.20
2017-10-06T20:35:07.997Z,13.10
2017-10-06T20:37:36.118Z,13.10
2017-10-06T20:40:04.214Z,13.00
2017-10-06T20:42:33.297Z,12.90
2017-10-06T20:45:01.431Z,12.80
2017-10-06T20:47:29.532Z,12.90
2017-10-06T20:49:57.626Z,12.90
2017-10-06T20:52:26.464Z,12.90
2017-10-06T20:54:54.571Z,12.80
2017-10-06T20:57:22.659Z,12.80
2017-10-06T20:59:50.923Z,12.80
2017-10-06T21:02:18.990Z,12.80
2017-10-06T21:04:47.064Z,13.00
2017-10-06T21:07:15.163Z,13.00
2017-10-06T21:09:44.011Z,13.10
2017-10-06T21:12:12.388Z,13.00
2017-10-06T21:14:40.511Z,13.10
2017-10-06T21:17:09.330Z,12.80
2017-10-06T21:19:37.404Z,12.80
2017-10-06T21:22:05.480Z,12.80
2017-10-06T21:24:33.572Z,12.80
2017-10-06T21:27:01.636Z,12.90
2017-10-06T21:29:29.761Z,12.90
2017-10-06T21:31:57.857Z,13.00
2017-10-06T21:34:25.971Z,13.10
2017-10-06T21:36:54.028Z,13.20
2017-10-06T21:39:22.133Z,13.30
2017-10-06T21:41:51.002Z,13.20
2017-10-06T21:44:19.098Z,13.20
2017-10-06T21:46:47.956Z,13.20
2017-10-06T21:49:16.017Z,13.20
2017-10-06T21:51:44.147Z,13.00
2017-10-06T21:54:12.984Z,12.90
2017-10-06T21:56:41.109Z,12.80
2017-10-06T21:59:09.923Z,12.90
2017-10-06T22:01:38.036Z,12.90
2017-10-06T22:04:06.476Z,12.90
2017-10-06T22:06:34.552Z,12.90
2017-10-06T22:09:02.704Z,12.90
2017-10-06T22:11:31.513Z,12.90
2017-10-06T22:13:59.586Z,12.90
2017-10-06T22:16:27.666Z,13.00
2017-10-06T22:18:55.755Z,12.90
2017-10-06T22:21:23.832Z,13.00
2017-10-06T22:23:51.908Z,13.10
2017-10-06T22:26:20.008Z,13.00
2017-10-06T22:28:48.843Z,13.00
2017-10-06T22:31:16.928Z,13.00
2017-10-06T22:33:44.999Z,13.00
2017-10-06T22:36:13.155Z,12.90
2017-10-06T22:38:41.219Z,12.90
2017-10-06T22:41:09.291Z,13.00
2017-10-06T22:43:37.716Z,13.00
2017-10-06T22:46:05.748Z,13.00
2017-10-06T22:48:33.843Z,12.80
2017-10-06T22:51:01.904Z,12.80
2017-10-06T22:53:29.981Z,12.70
2017-10-06T22:55:58.038Z,12.50
2017-10-06T22:58:26.159Z,12.50
2017-10-06T23:00:55.004Z,12.50
2017-10-06T23:03:23.059Z,12.40
2017-10-06T23:05:51.163Z,12.50
2017-10-06T23:08:19.226Z,12.60
2017-10-06T23:10:47.896Z,12.60
2017-10-06T23:13:15.949Z,12.70
2017-10-06T23:15:44.051Z,12.70
2017-10-06T23:18:12.120Z,12.80
2017-10-06T23:20:40.207Z,12.80
2017-10-06T23:23:09.056Z,12.90
2017-10-06T23:25:38.028Z,12.90
2017-10-06T23:28:06.108Z,12.90
2017-10-06T23:30:34.647Z,12.80
2017-10-06T23:33:03.511Z,12.80
2017-10-06T23:35:31.610Z,12.70
2017-10-06T23:38:00.579Z,12.60
2017-10-06T23:40:30.164Z,12.60
2017-10-06T23:42:58.256Z,12.60
2017-10-06T23:45:26.318Z,12.40
2017-10-06T23:47:54.691Z,12.40
2017-10-06T23:50:22.747Z,12.30
2017-10-06T23:52:51.905Z,12.40
2017-10-06T23:55:20.001Z,12.30
2017-10-06T23:57:48.955Z,12.40
